createdAt,value
2018-07-16T00:00:40.331Z,37
2018-07-16T00:01:42.099Z,37
2018-07-16T00:02:38.059Z,37
2018-07-16T00:03:43.355Z,37
2018-07-16T00:04:36.055Z,37
2018-07-16T00:05:39.168Z,37
2018-07-16T00:06:45.603Z,37.1
2018-07-16T00:07:42.061Z,37.1
2018-07-16T00:08:55.062Z,37.1
2018-07-16T00:09:48.132Z,37.1
2018-07-16T00:10:54.570Z,37.2
2018-07-16T00:11:55.039Z,37.2
2018-07-16T00:12:59.118Z,37.3
2018-07-16T00:14:01.960Z,37.3
2018-07-16T00:15:02.942Z,37.5
2018-07-16T00:16:04.335Z,37.7
2018-07-16T00:17:25.712Z,37.7
2018-07-16T00:18:25.603Z,37.6
2018-07-16T00:19:28.944Z,37.7
2018-07-16T00:20:24.293Z,37.6
2018-07-16T00:21:22.572Z,37.6
2018-07-16T00:22:37.361Z,37.6
2018-07-16T00:23:34.698Z,37.6
2018-07-16T00:24:39.012Z,37.6
2018-07-16T00:25:42.826Z,37.6
2018-07-16T00:26:40.569Z,37.6
2018-07-16T00:27:38.421Z,37.6
2018-07-16T00:28:39.441Z,37.6
2018-07-16T00:29:38.007Z,37.6
2018-07-16T00:30:36.895Z,37.6
2018-07-16T00:31:38.614Z,37.6
2018-07-16T00:32:37.487Z,37.5
2018-07-16T00:33:38.689Z,37.6
2018-07-16T00:34:40.514Z,37.6
2018-07-16T00:35:53.100Z,37.7
2018-07-16T00:36:46.463Z,37.7
2018-07-16T00:37:46.941Z,37.7
2018-07-16T00:38:48.529Z,37.7
2018-07-16T00:39:46.752Z,37.7
2018-07-16T00:40:44.016Z,37.7
2018-07-16T00:41:43.097Z,37.7
2018-07-16T00:42:45.563Z,37.7
2018-07-16T00:43:49.485Z,37.8
2018-07-16T00:44:49.575Z,37.8
2018-07-16T00:45:49.150Z,37.8
2018-07-16T00:46:49.672Z,37.8
2018-07-16T00:48:01.390Z,37.8
2018-07-16T00:49:03.618Z,37.7
2018-07-16T00:50:01.414Z,37.7
2018-07-16T00:50:59.851Z,37.7
2018-07-16T00:52:09.133Z,37.8
2018-07-16T00:53:05.967Z,37.7
2018-07-16T00:54:10.754Z,37.7
2018-07-16T00:55:12.016Z,37.7
2018-07-16T00:56:06.703Z,37.7
2018-07-16T00:57:07.208Z,37.7
2018-07-16T00:58:08.586Z,37.7
2018-07-16T00:59:03.996Z,37.8
2018-07-16T01:00:05.501Z,37.8
2018-07-16T01:01:01.047Z,37.8
2018-07-16T01:02:20.971Z,37.8
2018-07-16T01:03:19.550Z,37.8
2018-07-16T01:04:17.382Z,37.8
2018-07-16T01:05:15.336Z,37.8
2018-07-16T01:06:18.051Z,37.8
2018-07-16T01:07:20.073Z,37.8
2018-07-16T01:08:18.126Z,37.8
2018-07-16T01:09:24.088Z,37.8
2018-07-16T01:10:24.611Z,37.8
2018-07-16T01:11:23.435Z,37.8
2018-07-16T01:12:33.694Z,37.8
2018-07-16T01:13:29.824Z,37.8
2018-07-16T01:14:30.778Z,37.8
2018-07-16T01:15:29.671Z,37.8
2018-07-16T01:16:29.525Z,37.8
2018-07-16T01:17:30.674Z,37.8
2018-07-16T01:18:25.938Z,37.8
2018-07-16T01:19:26.859Z,37.9
2018-07-16T01:20:27.326Z,37.9
2018-07-16T01:21:42.328Z,38.2
2018-07-16T01:22:38.613Z,37.9
2018-07-16T01:23:37.315Z,37.9
2018-07-16T01:24:37.215Z,37.8
2018-07-16T01:25:35.840Z,37.8
2018-07-16T01:26:53.188Z,37.8
2018-07-16T01:27:53.211Z,37.9
2018-07-16T01:28:54.923Z,37.8
2018-07-16T01:29:53.135Z,37.8
2018-07-16T01:30:52.074Z,37.8
2018-07-16T01:31:55.214Z,37.8
2018-07-16T01:32:52.399Z,37.9
2018-07-16T01:33:53.084Z,37.9
2018-07-16T01:34:50.822Z,37.9
2018-07-16T01:36:07.388Z,37.9
2018-07-16T01:37:02.197Z,37.9
2018-07-16T01:38:00.707Z,38
2018-07-16T01:39:01.452Z,38.1
2018-07-16T01:40:01.436Z,38.1
2018-07-16T01:41:06.056Z,38.2
2018-07-16T01:42:02.521Z,38.2
2018-07-16T01:43:13.848Z,38.3
2018-07-16T01:44:10.580Z,38.4
2018-07-16T01:45:11.301Z,38.5
2018-07-16T01:46:15.370Z,38.5
2018-07-16T01:47:15.917Z,38.6
2018-07-16T01:48:11.801Z,38.6
2018-07-16T01:49:11.523Z,38.6
2018-07-16T01:50:09.733Z,38.6
2018-07-16T01:51:08.558Z,38.9
2018-07-16T01:52:11.091Z,38.7
2018-07-16T01:53:11.173Z,38.7
2018-07-16T01:54:11.583Z,38.7
2018-07-16T01:55:10.665Z,38.7
2018-07-16T01:56:11.599Z,38.7
2018-07-16T01:57:25.451Z,38.8
2018-07-16T01:58:20.814Z,38.8
2018-07-16T01:59:28.909Z,38.7
2018-07-16T02:00:28.793Z,38.7
2018-07-16T02:01:24.480Z,38.8
2018-07-16T02:02:26.671Z,38.7
2018-07-16T02:03:24.499Z,38.8
2018-07-16T02:04:20.850Z,38.8
2018-07-16T02:05:34.620Z,38.8
2018-07-16T02:06:31.005Z,38.8
2018-07-16T02:07:31.102Z,38.8
2018-07-16T02:08:32.369Z,38.9
2018-07-16T02:09:45.719Z,38.9
2018-07-16T02:10:49.254Z,38.9
2018-07-16T02:11:47.018Z,38.9
2018-07-16T02:12:50.377Z,39
2018-07-16T02:13:53.591Z,39
2018-07-16T02:14:57.540Z,39
2018-07-16T02:15:55.701Z,39
2018-07-16T02:16:51.762Z,39
2018-07-16T02:17:54.405Z,39
2018-07-16T02:18:56.202Z,39.1
2018-07-16T02:19:56.000Z,39.1
2018-07-16T02:20:53.397Z,39.1
2018-07-16T02:21:51.609Z,39.1
2018-07-16T02:23:03.536Z,39.2
2018-07-16T02:24:01.891Z,39.2
2018-07-16T02:24:57.241Z,39.2
2018-07-16T02:25:56.331Z,39.3
2018-07-16T02:26:54.110Z,39.3
2018-07-16T02:27:51.917Z,39.3
2018-07-16T02:28:49.699Z,39.4
2018-07-16T02:29:49.905Z,39.4
2018-07-16T02:30:52.384Z,39.4
2018-07-16T02:31:56.947Z,39.4
2018-07-16T02:32:58.216Z,39.4
2018-07-16T02:33:55.371Z,39.4
2018-07-16T02:34:54.310Z,39.5
2018-07-16T02:35:56.401Z,39.5
2018-07-16T02:37:11.625Z,39.4
2018-07-16T02:38:09.027Z,39.5
2018-07-16T02:39:12.231Z,39.5
2018-07-16T02:40:07.270Z,39.5
2018-07-16T02:42:13.734Z,39.5
2018-07-16T02:43:12.653Z,39.5
2018-07-16T02:44:08.012Z,39.5
2018-07-16T02:45:09.251Z,39.5
2018-07-16T02:46:10.853Z,39.5
2018-07-16T02:47:16.697Z,39.5
2018-07-16T02:48:15.635Z,39.5
2018-07-16T02:49:17.047Z,39.5
2018-07-16T02:50:29.638Z,39.6
2018-07-16T02:51:25.578Z,39.6
2018-07-16T02:52:20.875Z,39.7
2018-07-16T02:53:26.107Z,39.7
2018-07-16T02:54:24.821Z,39.7
2018-07-16T02:55:22.414Z,39.7
2018-07-16T02:56:24.114Z,39.7
2018-07-16T02:57:22.378Z,39.8
2018-07-16T02:58:27.895Z,39.8
2018-07-16T02:59:22.429Z,39.8
2018-07-16T03:00:20.071Z,39.8
2018-07-16T03:01:18.108Z,39.8
2018-07-16T03:02:16.832Z,39.8
2018-07-16T03:03:18.931Z,39.8
2018-07-16T03:04:15.462Z,39.8
2018-07-16T03:05:15.413Z,39.9
2018-07-16T03:06:15.584Z,39.8
2018-07-16T03:07:18.659Z,40
2018-07-16T03:08:16.171Z,40
2018-07-16T03:09:13.900Z,40.1
2018-07-16T03:10:25.845Z,40.1
2018-07-16T03:11:29.556Z,40.2
2018-07-16T03:12:28.598Z,40.1
2018-07-16T03:13:23.845Z,40.2
2018-07-16T03:14:22.774Z,40.2
2018-07-16T03:15:29.176Z,40.3
2018-07-16T03:16:27.736Z,40.3
2018-07-16T03:17:39.633Z,40.3
2018-07-16T03:18:39.332Z,40.4
2018-07-16T03:19:41.281Z,40.4
2018-07-16T03:20:38.033Z,40.5
2018-07-16T03:21:49.139Z,40.5
2018-07-16T03:22:47.886Z,40.6
2018-07-16T03:23:46.041Z,40.6
2018-07-16T03:24:47.900Z,40.6
2018-07-16T03:25:49.006Z,40.8
2018-07-16T03:26:49.091Z,40.8
2018-07-16T03:27:44.476Z,40.9
2018-07-16T03:28:44.295Z,40.9
2018-07-16T03:29:57.915Z,41.1
2018-07-16T03:30:54.743Z,41.1
2018-07-16T03:31:51.263Z,41
2018-07-16T03:32:54.228Z,41.1
2018-07-16T03:33:57.552Z,41.1
2018-07-16T03:35:03.651Z,41.1
2018-07-16T03:35:58.388Z,41.1
2018-07-16T03:37:03.678Z,41.1
2018-07-16T03:38:08.232Z,41.1
2018-07-16T03:39:12.301Z,41.1
2018-07-16T03:40:10.154Z,41
2018-07-16T03:41:07.920Z,41
2018-07-16T03:42:09.258Z,41
2018-07-16T03:43:07.013Z,41.1
2018-07-16T03:44:08.170Z,41.1
2018-07-16T03:45:12.579Z,41.1
2018-07-16T03:46:07.571Z,41.2
2018-07-16T03:47:09.948Z,41.2
2018-07-16T03:48:08.462Z,41.4
2018-07-16T03:49:12.855Z,41.5
2018-07-16T03:50:16.022Z,41.5
2018-07-16T03:51:10.549Z,41.1
2018-07-16T03:52:11.470Z,41.6
2018-07-16T03:53:12.515Z,41.6
2018-07-16T03:54:12.491Z,41.5
2018-07-16T03:55:30.213Z,41.5
2018-07-16T03:56:27.134Z,41.5
2018-07-16T03:57:27.650Z,41.5
2018-07-16T03:58:22.267Z,41.6
2018-07-16T03:59:23.739Z,41.6
2018-07-16T04:00:26.767Z,41.6
2018-07-16T04:01:21.865Z,41.6
2018-07-16T04:02:23.219Z,41.6
2018-07-16T04:03:24.995Z,41.6
2018-07-16T04:04:23.879Z,41.7
2018-07-16T04:05:21.707Z,41.7
2018-07-16T04:06:30.624Z,41.8
2018-07-16T04:07:47.970Z,41.7
2018-07-16T04:08:40.614Z,41.7
2018-07-16T04:09:45.378Z,41.7
2018-07-16T04:10:43.954Z,41.7
2018-07-16T04:11:41.462Z,41.7
2018-07-16T04:12:42.933Z,41.7
2018-07-16T04:13:39.266Z,41.7
2018-07-16T04:14:40.799Z,41.7
2018-07-16T04:15:38.533Z,41.7
2018-07-16T04:16:38.362Z,41.8
2018-07-16T04:17:36.467Z,41.7
2018-07-16T04:18:35.038Z,41.8
2018-07-16T04:19:37.324Z,41.7
2018-07-16T04:20:37.059Z,41.7
2018-07-16T04:21:46.796Z,42.1
2018-07-16T04:22:46.356Z,41.7
2018-07-16T04:23:45.781Z,41.7
2018-07-16T04:24:43.650Z,41.7
2018-07-16T04:25:41.566Z,41.7
2018-07-16T04:26:43.363Z,41.7
2018-07-16T04:27:49.112Z,41.7
2018-07-16T04:28:48.145Z,41.8
2018-07-16T04:29:52.582Z,41.8
2018-07-16T04:30:50.558Z,41.9
2018-07-16T04:31:51.052Z,41.9
2018-07-16T04:32:52.777Z,42
2018-07-16T04:34:06.759Z,42
2018-07-16T04:35:02.904Z,42
2018-07-16T04:36:07.894Z,42
2018-07-16T04:37:07.519Z,42.1
2018-07-16T04:38:05.413Z,42.2
2018-07-16T04:39:09.309Z,42.2
2018-07-16T04:40:15.792Z,42.2
2018-07-16T04:41:14.582Z,42.4
2018-07-16T04:42:26.533Z,42.3
2018-07-16T04:43:26.666Z,42.3
2018-07-16T04:44:27.443Z,42.3
2018-07-16T04:45:27.655Z,42.4
2018-07-16T04:46:27.659Z,42.4
2018-07-16T04:47:38.917Z,42.4
2018-07-16T04:48:34.357Z,42.5
2018-07-16T04:49:36.747Z,42.5
2018-07-16T04:50:38.375Z,42.6
2018-07-16T04:51:41.853Z,42.9
2018-07-16T04:52:51.409Z,42.7
2018-07-16T04:53:54.079Z,42.8
2018-07-16T04:54:54.615Z,42.8
2018-07-16T04:55:52.774Z,42.8
2018-07-16T04:56:47.789Z,42.9
2018-07-16T04:57:47.986Z,42.9
2018-07-16T04:58:45.696Z,42.9
2018-07-16T04:59:43.363Z,42.9
2018-07-16T05:00:50.500Z,42.9
2018-07-16T05:02:05.682Z,43
2018-07-16T05:02:57.612Z,43
2018-07-16T05:03:55.551Z,43
2018-07-16T05:04:53.372Z,43
2018-07-16T05:05:56.387Z,43
2018-07-16T05:06:55.198Z,43
2018-07-16T05:07:53.084Z,43
2018-07-16T05:08:57.533Z,43.1
2018-07-16T05:09:53.053Z,43
2018-07-16T05:10:52.917Z,43.1
2018-07-16T05:11:55.047Z,43.1
2018-07-16T05:13:10.370Z,43.1
2018-07-16T05:14:15.445Z,43
2018-07-16T05:15:14.198Z,43.1
2018-07-16T05:16:20.049Z,43.2
2018-07-16T05:17:19.918Z,43.1
2018-07-16T05:18:26.120Z,43.1
2018-07-16T05:19:23.258Z,43.1
2018-07-16T05:20:27.510Z,43.1
2018-07-16T05:21:24.029Z,43
2018-07-16T05:22:24.869Z,43.2
2018-07-16T05:23:24.083Z,43.2
2018-07-16T05:24:49.442Z,43.2
2018-07-16T05:25:36.006Z,43.3
2018-07-16T05:26:20.568Z,43.3
2018-07-16T05:27:19.417Z,43.3
2018-07-16T05:28:16.948Z,43.3
2018-07-16T05:29:17.970Z,43.3
2018-07-16T05:30:18.453Z,43.3
2018-07-16T05:31:22.128Z,43.2
2018-07-16T05:32:19.623Z,43.3
2018-07-16T05:33:18.680Z,43.3
2018-07-16T05:34:17.876Z,43.3
2018-07-16T05:35:16.007Z,43.3
2018-07-16T05:36:27.451Z,43
2018-07-16T05:37:23.682Z,43.3
2018-07-16T05:38:27.783Z,43.3
2018-07-16T05:39:27.761Z,43.3
2018-07-16T05:40:26.571Z,43.9
2018-07-16T05:41:26.942Z,44.4
2018-07-16T05:42:27.952Z,44.3
2018-07-16T05:43:28.543Z,44.5
2018-07-16T05:44:27.203Z,44.6
2018-07-16T05:45:24.835Z,45
2018-07-16T05:46:30.646Z,45.3
2018-07-16T05:47:28.686Z,45.6
2018-07-16T05:48:41.153Z,45.4
2018-07-16T05:49:35.847Z,45.8
2018-07-16T05:50:35.798Z,45.8
2018-07-16T05:51:33.704Z,46.1
2018-07-16T05:52:31.123Z,46.4
2018-07-16T05:53:34.637Z,46.9
2018-07-16T05:54:34.901Z,47.2
2018-07-16T05:55:28.916Z,47.1
2018-07-16T05:56:33.525Z,47.5
2018-07-16T05:57:49.688Z,47.6
2018-07-16T05:58:44.320Z,48.4
2018-07-16T05:59:44.420Z,48.4
2018-07-16T06:00:46.283Z,48.4
2018-07-16T06:01:44.071Z,48.4
2018-07-16T06:02:42.023Z,48.5
2018-07-16T06:03:39.795Z,48.5
2018-07-16T06:04:37.675Z,48.5
2018-07-16T06:05:38.838Z,48.6
2018-07-16T06:06:36.324Z,49.5
2018-07-16T06:07:39.502Z,48.5
2018-07-16T06:08:37.621Z,48.4
2018-07-16T06:09:37.165Z,48.5
2018-07-16T06:10:36.393Z,49
2018-07-16T06:11:47.824Z,48.5
2018-07-16T06:12:52.331Z,48.5
2018-07-16T06:13:53.027Z,48.4
2018-07-16T06:14:54.274Z,48.4
2018-07-16T06:15:53.709Z,47.7
2018-07-16T06:16:53.104Z,47.3
2018-07-16T06:17:55.013Z,46.7
2018-07-16T06:18:53.640Z,46.7
2018-07-16T06:19:51.591Z,47.5
2018-07-16T06:20:49.457Z,47.1
2018-07-16T06:21:48.451Z,46.9
2018-07-16T06:22:46.148Z,47.1
2018-07-16T06:23:52.493Z,47.4
2018-07-16T06:24:47.833Z,46.7
2018-07-16T06:25:45.321Z,46.7
2018-07-16T06:26:43.442Z,47.7
2018-07-16T06:27:55.005Z,48.2
2018-07-16T06:28:46.740Z,46.9
2018-07-16T06:29:49.016Z,46.5
2018-07-16T06:30:45.319Z,46.1
2018-07-16T06:31:44.113Z,46
2018-07-16T06:32:45.525Z,45.8
2018-07-16T06:33:48.139Z,46.2
2018-07-16T06:34:47.877Z,45.9
2018-07-16T06:35:49.257Z,45.8
2018-07-16T06:36:47.348Z,46.4
2018-07-16T06:38:03.038Z,45.6
2018-07-16T06:39:07.795Z,46
2018-07-16T06:40:07.496Z,46.7
2018-07-16T06:41:06.639Z,46.3
2018-07-16T06:42:09.362Z,46
2018-07-16T06:43:05.057Z,45.9
2018-07-16T06:44:11.471Z,45.8
2018-07-16T06:45:12.532Z,45.7
2018-07-16T06:46:11.262Z,46.1
2018-07-16T06:47:06.593Z,46
2018-07-16T06:48:08.244Z,46.1
2018-07-16T06:49:20.809Z,45.7
2018-07-16T06:50:16.900Z,46.2
2018-07-16T06:51:14.780Z,45.8
2018-07-16T06:52:11.564Z,46
2018-07-16T06:53:15.942Z,46.1
2018-07-16T06:54:15.330Z,46.2
2018-07-16T06:55:13.192Z,45.7
2018-07-16T06:56:20.545Z,45.4
2018-07-16T06:57:16.193Z,45.9
2018-07-16T06:58:14.714Z,45.6
2018-07-16T06:59:12.810Z,45.3
2018-07-16T07:00:10.527Z,45.5
2018-07-16T07:01:12.350Z,45.2
2018-07-16T07:02:11.563Z,45.3
2018-07-16T07:03:17.378Z,45.2
2018-07-16T07:04:29.783Z,45.6
2018-07-16T07:05:33.530Z,44.7
2018-07-16T07:06:30.608Z,44.7
2018-07-16T07:07:30.367Z,44.6
2018-07-16T07:08:30.965Z,44.6
2018-07-16T07:09:36.034Z,44.5
2018-07-16T07:10:37.135Z,44.3
2018-07-16T07:11:34.793Z,44.3
2018-07-16T07:12:36.952Z,44.2
2018-07-16T07:13:34.486Z,44
2018-07-16T07:14:30.234Z,43.9
2018-07-16T07:15:34.476Z,43.8
2018-07-16T07:16:33.519Z,43.9
2018-07-16T07:17:59.604Z,43.9
2018-07-16T07:18:49.646Z,43.9
2018-07-16T07:19:53.241Z,43.8
2018-07-16T07:20:54.591Z,43.7
2018-07-16T07:21:53.631Z,43.6
2018-07-16T07:22:51.284Z,43.6
2018-07-16T07:23:45.767Z,43.5
2018-07-16T07:24:46.357Z,43.4
2018-07-16T07:25:50.167Z,43.4
2018-07-16T07:26:48.521Z,43.4
2018-07-16T07:27:49.883Z,43.3
2018-07-16T07:28:51.212Z,43.2
2018-07-16T07:29:52.835Z,43.2
2018-07-16T07:30:53.789Z,43.2
2018-07-16T07:32:09.657Z,43.1
2018-07-16T07:33:09.447Z,43.1
2018-07-16T07:34:03.484Z,43
2018-07-16T07:35:03.080Z,43
2018-07-16T07:36:02.324Z,42.9
2018-07-16T07:37:00.216Z,42.9
2018-07-16T07:37:59.048Z,42.9
2018-07-16T07:39:01.214Z,42.9
2018-07-16T07:39:58.905Z,42.8
2018-07-16T07:41:01.988Z,42.9
2018-07-16T07:41:58.860Z,42.9
2018-07-16T07:43:05.654Z,42.8
2018-07-16T07:44:09.199Z,42.7
2018-07-16T07:45:05.501Z,42.7
2018-07-16T07:46:07.027Z,42.7
2018-07-16T07:47:06.270Z,42.6
2018-07-16T07:48:05.468Z,42.6
2018-07-16T07:49:19.397Z,42.6
2018-07-16T07:50:14.719Z,42.6
2018-07-16T07:51:22.020Z,42.6
2018-07-16T07:52:16.966Z,42.5
2018-07-16T07:53:23.578Z,42.5
2018-07-16T07:54:20.272Z,42.5
2018-07-16T07:55:18.872Z,42.5
2018-07-16T07:56:23.850Z,42.5
2018-07-16T07:57:21.805Z,42.5
2018-07-16T07:58:26.203Z,42.5
2018-07-16T07:59:22.028Z,42.5
2018-07-16T08:00:24.302Z,42.5
2018-07-16T08:01:20.660Z,42.4
2018-07-16T08:02:32.730Z,42.4
2018-07-16T08:03:26.541Z,42.3
2018-07-16T08:04:30.318Z,42.3
2018-07-16T08:05:25.609Z,42.3
2018-07-16T08:06:24.409Z,41.9
2018-07-16T08:07:25.169Z,42.2
2018-07-16T08:08:25.122Z,42.2
2018-07-16T08:09:26.051Z,42.1
2018-07-16T08:10:27.246Z,42.1
2018-07-16T08:11:27.612Z,42.1
2018-07-16T08:12:23.969Z,42
2018-07-16T08:13:28.173Z,42.1
2018-07-16T08:14:30.187Z,42
2018-07-16T08:15:29.504Z,42
2018-07-16T08:16:27.302Z,42
2018-07-16T08:17:28.100Z,41.9
2018-07-16T08:18:28.801Z,41.9
2018-07-16T08:19:24.844Z,41.9
2018-07-16T08:20:37.074Z,41.9
2018-07-16T08:21:32.810Z,41.8
2018-07-16T08:22:33.546Z,41.8
2018-07-16T08:23:38.776Z,41.7
2018-07-16T08:24:43.977Z,41.7
2018-07-16T08:25:54.447Z,41.7
2018-07-16T08:26:54.710Z,41.6
2018-07-16T08:27:54.265Z,41.6
2018-07-16T08:28:54.346Z,41.6
2018-07-16T08:29:57.771Z,41.5
2018-07-16T08:30:56.717Z,41.5
2018-07-16T08:31:58.623Z,41.5
2018-07-16T08:32:59.050Z,41.4
2018-07-16T08:34:11.167Z,41.4
2018-07-16T08:35:06.407Z,41.4
2018-07-16T08:36:05.762Z,41.3
2018-07-16T08:37:06.926Z,41.3
2018-07-16T08:38:06.170Z,41.3
2018-07-16T08:39:07.337Z,41.2
2018-07-16T08:40:04.933Z,41.2
2018-07-16T08:41:04.773Z,41.2
2018-07-16T08:42:04.473Z,41.2
2018-07-16T08:43:17.232Z,41.1
2018-07-16T08:44:15.242Z,41.1
2018-07-16T08:45:12.936Z,41
2018-07-16T08:46:12.465Z,41
2018-07-16T08:47:13.491Z,41
2018-07-16T08:48:13.055Z,40.9
2018-07-16T08:49:10.917Z,40.8
2018-07-16T08:50:12.122Z,40.7
2018-07-16T08:51:13.138Z,40.7
2018-07-16T08:52:12.410Z,40.7
2018-07-16T08:53:05.484Z,40.6
2018-07-16T08:54:07.333Z,40.6
2018-07-16T08:55:23.194Z,40.6
2018-07-16T08:56:23.269Z,40.4
2018-07-16T08:57:19.617Z,40.4
2018-07-16T08:58:20.063Z,40.4
2018-07-16T08:59:25.527Z,40.4
2018-07-16T09:00:24.187Z,40.4
2018-07-16T09:01:27.008Z,40.4
2018-07-16T09:02:19.964Z,40.4
2018-07-16T09:03:18.875Z,40.4
2018-07-16T09:04:19.563Z,40.4
2018-07-16T09:05:19.040Z,40.4
2018-07-16T09:06:34.157Z,40.4
2018-07-16T09:07:26.793Z,40.4
2018-07-16T09:08:33.442Z,40.3
2018-07-16T09:09:40.364Z,40.3
2018-07-16T09:10:37.026Z,40.3
2018-07-16T09:11:37.294Z,40.3
2018-07-16T09:12:35.107Z,40.3
2018-07-16T09:13:30.519Z,40.3
2018-07-16T09:14:32.353Z,40.3
2018-07-16T09:15:33.326Z,40.3
2018-07-16T09:16:45.442Z,40.3
2018-07-16T09:17:41.487Z,40.3
2018-07-16T09:18:47.905Z,40.3
2018-07-16T09:19:42.506Z,40.3
2018-07-16T09:20:40.409Z,40.3
2018-07-16T09:21:42.864Z,40.3
2018-07-16T09:22:41.760Z,40.3
2018-07-16T09:23:41.511Z,40.2
2018-07-16T09:24:34.651Z,40.2
2018-07-16T09:25:42.145Z,40.3
2018-07-16T09:26:54.785Z,40.2
2018-07-16T09:27:50.476Z,40.2
2018-07-16T09:28:47.001Z,40.2
2018-07-16T09:29:50.015Z,40.2
2018-07-16T09:30:47.536Z,40.2
2018-07-16T09:31:45.442Z,40.2
2018-07-16T09:32:47.619Z,40.2
2018-07-16T09:33:45.636Z,40.2
2018-07-16T09:34:49.533Z,40.2
2018-07-16T09:35:49.792Z,40.2
2018-07-16T09:36:46.209Z,40
2018-07-16T09:37:48.119Z,40.2
2018-07-16T09:38:52.101Z,40.1
2018-07-16T09:40:01.414Z,40.1
2018-07-16T09:41:01.114Z,40.1
2018-07-16T09:42:13.868Z,40.1
2018-07-16T09:43:12.311Z,40.1
2018-07-16T09:44:13.496Z,40.1
2018-07-16T09:45:24.794Z,40.1
2018-07-16T09:46:20.547Z,40.1
2018-07-16T09:47:26.933Z,40.1
2018-07-16T09:48:29.628Z,40.1
2018-07-16T09:49:32.681Z,40.1
2018-07-16T09:50:35.467Z,40
2018-07-16T09:51:41.747Z,39.7
2018-07-16T09:52:40.731Z,40
2018-07-16T09:53:52.065Z,40
2018-07-16T09:54:44.304Z,39.8
2018-07-16T09:55:46.481Z,39.7
2018-07-16T09:56:41.950Z,39.7
2018-07-16T09:57:43.435Z,39.7
2018-07-16T09:58:39.661Z,39.7
2018-07-16T09:59:42.768Z,39.6
2018-07-16T10:00:41.570Z,39.5
2018-07-16T10:01:44.117Z,39.4
2018-07-16T10:02:43.776Z,39.4
2018-07-16T10:03:50.084Z,39.4
2018-07-16T10:04:49.936Z,39.4
2018-07-16T10:05:53.778Z,39.3
2018-07-16T10:06:48.660Z,39.1
2018-07-16T10:07:46.887Z,39.2
2018-07-16T10:08:45.211Z,39.2
2018-07-16T10:09:57.300Z,39.2
2018-07-16T10:10:52.154Z,39.1
2018-07-16T10:11:55.209Z,39
2018-07-16T10:12:52.974Z,39
2018-07-16T10:13:55.265Z,39
2018-07-16T10:14:52.874Z,38.9
2018-07-16T10:15:54.806Z,38.9
2018-07-16T10:16:54.821Z,38.8
2018-07-16T10:17:54.365Z,38.8
2018-07-16T10:18:56.786Z,38.8
2018-07-16T10:19:53.468Z,38.8
2018-07-16T10:20:51.316Z,38.8
2018-07-16T10:21:49.325Z,38.7
2018-07-16T10:22:48.191Z,38.8
2018-07-16T10:23:59.827Z,39.1
2018-07-16T10:24:52.937Z,39.1
2018-07-16T10:26:00.543Z,39.1
2018-07-16T10:26:59.266Z,39.1
2018-07-16T10:28:01.005Z,39
2018-07-16T10:28:59.056Z,39
2018-07-16T10:29:57.911Z,39
2018-07-16T10:31:01.422Z,39
2018-07-16T10:31:59.510Z,38.9
2018-07-16T10:32:58.166Z,38.9
2018-07-16T10:34:15.110Z,38.9
2018-07-16T10:35:10.406Z,38.9
2018-07-16T10:36:08.681Z,38.8
2018-07-16T10:37:06.084Z,38.8
2018-07-16T10:38:04.098Z,38.8
2018-07-16T10:39:06.528Z,38.8
2018-07-16T10:40:01.714Z,38.8
2018-07-16T10:41:03.058Z,38.7
2018-07-16T10:42:07.342Z,38.7
2018-07-16T10:43:10.290Z,38.6
2018-07-16T10:44:22.634Z,38.6
2018-07-16T10:45:25.640Z,38.6
2018-07-16T10:46:29.574Z,38.6
2018-07-16T10:47:28.400Z,38.5
2018-07-16T10:48:32.905Z,38.5
2018-07-16T10:49:30.414Z,38.4
2018-07-16T10:50:31.582Z,38.4
2018-07-16T10:51:29.032Z,38.4
2018-07-16T10:52:23.746Z,38.4
2018-07-16T10:53:28.955Z,38.4
2018-07-16T10:54:28.196Z,38.4
2018-07-16T10:55:27.058Z,38.4
2018-07-16T10:56:24.236Z,38.4
2018-07-16T10:57:25.422Z,38.3
2018-07-16T10:58:34.202Z,38.3
2018-07-16T10:59:29.781Z,38.3
2018-07-16T11:00:32.723Z,38.2
2018-07-16T11:01:31.959Z,38.1
2018-07-16T11:02:29.768Z,38.1
2018-07-16T11:03:30.095Z,38.1
2018-07-16T11:04:27.562Z,38.1
2018-07-16T11:05:25.455Z,38.1
2018-07-16T11:06:23.386Z,38.1
2018-07-16T11:07:25.964Z,38.1
2018-07-16T11:08:24.624Z,38.1
2018-07-16T11:09:23.381Z,38.1
2018-07-16T11:10:19.779Z,38.1
2018-07-16T11:11:40.118Z,38.1
2018-07-16T11:12:39.264Z,38.1
2018-07-16T11:13:37.343Z,38.1
2018-07-16T11:14:40.607Z,38.1
2018-07-16T11:15:38.568Z,38
2018-07-16T11:16:42.848Z,37.9
2018-07-16T11:17:43.918Z,37.8
2018-07-16T11:18:38.883Z,37.8
2018-07-16T11:19:36.897Z,37.7
2018-07-16T11:20:38.103Z,37.7
2018-07-16T11:21:39.536Z,37.7
2018-07-16T11:22:38.661Z,37.7
2018-07-16T11:23:52.188Z,37.6
2018-07-16T11:24:47.714Z,37.6
2018-07-16T11:25:51.529Z,37.5
2018-07-16T11:26:59.167Z,37.4
2018-07-16T11:28:01.212Z,37.4
2018-07-16T11:29:05.694Z,37.3
2018-07-16T11:29:59.194Z,37.3
2018-07-16T11:31:00.862Z,37.4
2018-07-16T11:31:57.255Z,37.5
2018-07-16T11:32:58.162Z,37.5
2018-07-16T11:34:10.244Z,37.4
2018-07-16T11:35:04.803Z,37.5
2018-07-16T11:36:05.246Z,37.4
2018-07-16T11:37:02.905Z,37.4
2018-07-16T11:38:00.826Z,37.3
2018-07-16T11:38:58.574Z,37.3
2018-07-16T11:39:56.713Z,37.3
2018-07-16T11:40:59.076Z,37.3
2018-07-16T11:41:54.625Z,37.3
2018-07-16T11:42:57.732Z,37.3
2018-07-16T11:43:53.173Z,37.2
2018-07-16T11:44:53.584Z,37.2
2018-07-16T11:45:54.012Z,37.2
2018-07-16T11:46:56.910Z,37.2
2018-07-16T11:47:55.621Z,37.1
2018-07-16T11:49:10.947Z,37
2018-07-16T11:50:04.958Z,36.9
2018-07-16T11:51:10.076Z,36.8
2018-07-16T11:52:08.152Z,36.6
2018-07-16T11:53:08.761Z,36.6
2018-07-16T11:54:11.029Z,36.6
2018-07-16T11:55:11.254Z,36.6
2018-07-16T11:56:08.454Z,36.6
2018-07-16T11:57:12.009Z,36.5
2018-07-16T11:58:11.932Z,36.6
2018-07-16T11:59:11.212Z,36.6
2018-07-16T12:00:22.956Z,36.5
2018-07-16T12:01:18.816Z,36.5
2018-07-16T12:02:26.644Z,36.5
2018-07-16T12:03:28.224Z,36.5
2018-07-16T12:04:27.359Z,36.5
2018-07-16T12:05:28.290Z,36.5
2018-07-16T12:06:31.027Z,36.5
2018-07-16T12:07:27.049Z,36.5
2018-07-16T12:08:29.010Z,36.5
2018-07-16T12:09:39.628Z,36.5
2018-07-16T12:10:37.755Z,36.5
2018-07-16T12:11:20.871Z,36.5
2018-07-16T12:12:45.781Z,36.5
2018-07-16T12:13:43.012Z,36.5
2018-07-16T12:14:39.842Z,36.5
2018-07-16T12:15:42.096Z,36.5
2018-07-16T12:16:39.614Z,36.5
2018-07-16T12:17:40.971Z,36.5
2018-07-16T12:18:37.670Z,36.5
2018-07-16T12:19:42.104Z,36.5
2018-07-16T12:20:37.342Z,36.5
2018-07-16T12:21:38.537Z,36.5
2018-07-16T12:22:52.223Z,36.5
2018-07-16T12:23:44.288Z,36.3
2018-07-16T12:24:47.279Z,36.3
2018-07-16T12:25:46.189Z,36.3
2018-07-16T12:26:51.232Z,36.4
2018-07-16T12:27:51.674Z,36.3
2018-07-16T12:28:47.880Z,36.2
2018-07-16T12:29:49.851Z,36.3
2018-07-16T12:30:49.685Z,36.2
2018-07-16T12:31:48.044Z,36.3
2018-07-16T12:32:49.423Z,36.3
2018-07-16T12:33:47.153Z,36.1
2018-07-16T12:34:47.483Z,36.1
2018-07-16T12:35:47.860Z,36
2018-07-16T12:37:01.137Z,35.8
2018-07-16T12:37:56.151Z,36
2018-07-16T12:38:59.598Z,36
2018-07-16T12:40:00.795Z,35.9
2018-07-16T12:40:56.176Z,35.8
2018-07-16T12:41:58.568Z,35.7
2018-07-16T12:42:56.487Z,35.6
2018-07-16T12:43:55.173Z,35.6
2018-07-16T12:44:50.429Z,35.7
2018-07-16T12:45:51.331Z,35.6
2018-07-16T12:46:48.780Z,35.6
2018-07-16T12:48:02.553Z,35.6
2018-07-16T12:49:02.809Z,35.7
2018-07-16T12:49:59.348Z,35.6
2018-07-16T12:51:01.176Z,35.6
2018-07-16T12:52:03.996Z,35.5
2018-07-16T12:53:02.001Z,35.6
2018-07-16T12:54:11.964Z,35.7
2018-07-16T12:55:08.499Z,35.8
2018-07-16T12:56:07.353Z,35.7
2018-07-16T12:57:08.967Z,35.6
2018-07-16T12:58:10.196Z,35.6
2018-07-16T12:59:15.520Z,35.6
2018-07-16T13:00:27.358Z,35.6
2018-07-16T13:01:22.256Z,35.6
2018-07-16T13:02:19.756Z,35.6
2018-07-16T13:03:22.812Z,35.5
2018-07-16T13:04:25.437Z,35.5
2018-07-16T13:05:20.952Z,35.5
2018-07-16T13:06:27.087Z,35.5
2018-07-16T13:07:21.874Z,35.4
2018-07-16T13:08:22.601Z,35.5
2018-07-16T13:09:28.130Z,35.4
2018-07-16T13:10:22.463Z,35.4
2018-07-16T13:11:28.187Z,35.4
2018-07-16T13:12:31.009Z,35.4
2018-07-16T13:13:28.802Z,35.5
2018-07-16T13:14:42.407Z,35.5
2018-07-16T13:15:53.256Z,35.4
2018-07-16T13:16:47.914Z,35.4
2018-07-16T13:17:46.422Z,35.4
2018-07-16T13:18:45.606Z,35.4
2018-07-16T13:19:43.172Z,35.4
2018-07-16T13:20:41.262Z,35.4
2018-07-16T13:21:49.661Z,35.3
2018-07-16T13:22:45.056Z,35.3
2018-07-16T13:23:44.069Z,35.2
2018-07-16T13:24:46.186Z,35.2
2018-07-16T13:25:48.311Z,35.2
2018-07-16T13:26:59.707Z,35.2
2018-07-16T13:27:54.406Z,35.2
2018-07-16T13:28:52.486Z,35.1
2018-07-16T13:29:54.031Z,35.1
2018-07-16T13:30:50.836Z,35.1
2018-07-16T13:31:49.496Z,35
2018-07-16T13:32:50.760Z,35.1
2018-07-16T13:33:50.925Z,35.2
2018-07-16T13:34:48.608Z,35.1
2018-07-16T13:35:54.438Z,35.2
2018-07-16T13:36:54.015Z,35.3
2018-07-16T13:37:52.825Z,35.2
2018-07-16T13:39:07.275Z,35.3